createdAt,value
2018-01-30T00:00:17.561Z,101816.67
2018-01-30T00:02:45.881Z,101825.56
2018-01-30T00:05:14.223Z,101827.32
2018-01-30T00:07:42.529Z,101833.94
2018-01-30T00:10:10.865Z,101832.21
2018-01-30T00:12:39.181Z,101827.76
2018-01-30T00:15:07.509Z,101828.20
2018-01-30T00:17:35.825Z,101831.77
2018-01-30T00:20:04.161Z,101831.36
2018-01-30T00:22:32.468Z,101829.58
2018-01-30T00:25:00.810Z,101843.23
2018-01-30T00:27:29.126Z,101844.05
2018-01-30T00:29:57.457Z,101843.20
2018-01-30T00:32:25.768Z,101854.22
2018-01-30T00:34:54.110Z,101846.72
2018-01-30T00:37:22.428Z,101852.84
2018-01-30T00:39:50.762Z,101861.30
2018-01-30T00:42:19.081Z,101850.34
2018-01-30T00:44:47.406Z,101856.94
2018-01-30T00:47:15.721Z,101864.41
2018-01-30T00:49:44.062Z,101872.34
2018-01-30T00:52:12.374Z,101875.88
2018-01-30T00:54:40.711Z,101881.67
2018-01-30T00:57:09.025Z,101888.28
2018-01-30T00:59:37.358Z,101887.05
2018-01-30T01:02:05.675Z,101893.16
2018-01-30T01:04:34.014Z,101899.87
2018-01-30T01:07:02.333Z,101897.72
2018-01-30T01:09:30.669Z,101909.53
2018-01-30T01:11:58.985Z,101914.81
2018-01-30T01:14:27.325Z,101917.50
2018-01-30T01:16:55.645Z,101927.59
2018-01-30T01:19:23.985Z,101922.38
2018-01-30T01:21:52.310Z,101924.55
2018-01-30T01:24:20.650Z,101926.30
2018-01-30T01:26:48.965Z,101928.08
2018-01-30T01:29:17.311Z,101929.35
2018-01-30T01:31:45.719Z,101935.93
2018-01-30T01:34:14.034Z,101932.42
2018-01-30T01:36:42.347Z,101924.99
2018-01-30T01:39:10.687Z,101932.03
2018-01-30T01:41:39.001Z,101929.81
2018-01-30T01:44:07.347Z,101937.26
2018-01-30T01:46:35.657Z,101940.78
2018-01-30T01:49:03.998Z,101940.80
2018-01-30T01:51:32.318Z,101938.59
2018-01-30T01:54:00.657Z,101938.58
2018-01-30T01:56:28.974Z,101935.52
2018-01-30T01:58:57.288Z,101929.41
2018-01-30T02:01:25.629Z,101924.57
2018-01-30T02:03:53.949Z,101921.04
2018-01-30T02:06:22.293Z,101914.02
2018-01-30T02:08:50.609Z,101910.49
2018-01-30T02:11:18.953Z,101910.10
2018-01-30T02:13:47.273Z,101907.02
2018-01-30T02:16:15.605Z,101907.94
2018-01-30T02:18:43.917Z,101912.34
2018-01-30T02:21:12.262Z,101911.02
2018-01-30T02:23:40.578Z,101907.99
2018-01-30T02:26:08.909Z,101904.45
2018-01-30T02:28:37.230Z,101903.16
2018-01-30T02:31:05.569Z,101906.66
2018-01-30T02:33:33.886Z,101910.14
2018-01-30T02:36:02.229Z,101908.43
2018-01-30T02:38:30.611Z,101902.26
2018-01-30T02:40:58.894Z,101894.81
2018-01-30T02:43:27.213Z,101901.37
2018-01-30T02:45:55.557Z,101904.02
2018-01-30T02:48:23.878Z,101905.80
2018-01-30T02:50:52.213Z,101899.22
2018-01-30T02:53:20.528Z,101900.53
2018-01-30T03:25:27.373Z,101913.39
2018-01-30T03:27:55.693Z,101917.37
2018-01-30T03:30:24.035Z,101920.87
2018-01-30T03:32:52.350Z,101922.63
2018-01-30T03:35:20.688Z,101921.73
2018-01-30T03:37:49.010Z,101923.94
2018-01-30T03:40:17.357Z,101924.81
2018-01-30T03:42:45.677Z,101923.48
2018-01-30T03:45:14.013Z,101923.50
2018-01-30T03:47:42.333Z,101932.70
2018-01-30T03:50:10.675Z,101935.33
2018-01-30T03:52:38.988Z,101934.04
2018-01-30T03:55:07.305Z,101933.59
2018-01-30T03:57:35.636Z,101932.72
2018-01-30T04:00:03.969Z,101938.85
2018-01-30T04:02:32.289Z,101928.77
2018-01-30T04:05:00.605Z,101928.32
2018-01-30T04:07:28.949Z,101922.22
2018-01-30T04:09:57.261Z,101932.30
2018-01-30T04:12:25.602Z,101930.96
2018-01-30T04:14:53.921Z,101935.34
2018-01-30T04:17:22.260Z,101940.16
2018-01-30T04:19:50.586Z,101946.73
2018-01-30T04:22:18.920Z,101948.92
2018-01-30T04:24:47.237Z,101938.87
2018-01-30T04:27:15.578Z,101943.69
2018-01-30T04:29:43.897Z,101938.87
2018-01-30T04:32:12.237Z,101939.30
2018-01-30T04:34:40.552Z,101943.25
2018-01-30T04:37:08.889Z,101944.13
2018-01-30T04:39:38.013Z,101946.75
2018-01-30T04:42:06.364Z,101948.08
2018-01-30T04:44:34.665Z,101961.23
2018-01-30T04:47:03.010Z,101960.34
2018-01-30T04:49:31.321Z,101955.52
2018-01-30T04:51:59.657Z,101960.77
2018-01-30T04:54:27.977Z,101965.58
2018-01-30T04:56:56.321Z,101970.42
2018-01-30T04:59:24.634Z,101973.47
2018-01-30T05:01:52.974Z,101967.78
2018-01-30T05:04:21.286Z,101969.52
2018-01-30T05:06:49.628Z,101974.36
2018-01-30T05:09:17.949Z,101976.98
2018-01-30T05:11:46.280Z,101969.96
2018-01-30T05:14:14.597Z,101977.41
2018-01-30T05:16:42.933Z,101989.26
2018-01-30T05:19:11.249Z,101973.93
2018-01-30T05:21:39.585Z,101979.63
2018-01-30T05:24:07.905Z,101984.88
2018-01-30T05:26:36.245Z,101992.75
2018-01-30T05:29:04.566Z,101980.47
2018-01-30T05:31:32.898Z,101965.14
2018-01-30T05:34:01.214Z,101971.72
2018-01-30T05:36:29.553Z,101979.17
2018-01-30T05:38:57.868Z,101983.53
2018-01-30T05:41:26.209Z,101977.86
2018-01-30T05:43:54.529Z,101986.61
2018-01-30T05:46:22.869Z,101988.80
2018-01-30T05:48:51.188Z,101983.97
2018-01-30T05:51:19.529Z,101989.22
2018-01-30T05:53:47.849Z,101994.89
2018-01-30T05:56:16.172Z,101991.42
2018-01-30T05:58:44.517Z,101990.98
2018-01-30T06:01:12.833Z,101998.42
2018-01-30T06:03:41.173Z,102001.05
2018-01-30T06:06:09.531Z,102001.04
2018-01-30T06:08:37.837Z,102004.11
2018-01-30T06:11:06.156Z,102013.33
2018-01-30T06:13:34.504Z,102025.13
2018-01-30T06:16:02.841Z,102009.34
2018-01-30T06:18:31.189Z,102017.23
2018-01-30T06:20:59.509Z,102024.70
2018-01-30T06:23:27.849Z,102030.39
2018-01-30T06:25:56.282Z,102024.23
2018-01-30T06:28:24.581Z,102027.77
2018-01-30T06:30:52.901Z,102039.58
2018-01-30T06:33:21.246Z,102042.63
2018-01-30T06:35:49.573Z,102029.52
2018-01-30T06:38:17.914Z,102030.84
2018-01-30T06:40:46.233Z,102038.70
2018-01-30T06:43:14.581Z,102030.39
2018-01-30T06:45:42.906Z,102042.64
2018-01-30T06:48:11.253Z,102038.29
2018-01-30T06:50:39.569Z,102045.73
2018-01-30T06:53:07.941Z,102038.31
2018-01-30T06:55:36.296Z,102037.41
2018-01-30T06:58:04.637Z,102047.91
2018-01-30T07:00:32.953Z,102038.70
2018-01-30T07:03:01.293Z,102036.52
2018-01-30T07:05:29.622Z,102043.08
2018-01-30T07:07:57.965Z,102043.53
2018-01-30T07:10:28.258Z,102043.96
2018-01-30T07:12:56.798Z,102043.94
2018-01-30T07:15:25.125Z,102054.02
2018-01-30T07:17:53.818Z,102064.08
2018-01-30T07:20:22.133Z,102068.05
2018-01-30T07:22:50.474Z,102071.55
2018-01-30T07:25:18.797Z,102076.34
2018-01-30T07:27:47.136Z,102082.50
2018-01-30T07:30:15.466Z,102083.41
2018-01-30T07:32:43.802Z,102085.60
2018-01-30T07:35:12.129Z,102085.62
2018-01-30T07:37:41.435Z,102083.90
2018-01-30T07:40:09.716Z,102086.52
2018-01-30T07:42:38.061Z,102077.32
2018-01-30T07:45:06.389Z,102078.22
2018-01-30T07:47:34.728Z,102079.95
2018-01-30T07:50:03.045Z,102081.74
2018-01-30T07:52:31.385Z,102077.35
2018-01-30T07:54:59.697Z,102076.91
2018-01-30T07:57:28.040Z,102073.42
2018-01-30T07:59:56.354Z,102082.17
2018-01-30T08:02:24.677Z,102071.66
2018-01-30T08:04:53.022Z,102071.24
2018-01-30T08:07:21.336Z,102065.55
2018-01-30T08:09:49.685Z,102071.25
2018-01-30T08:12:18.001Z,102070.80
2018-01-30T08:14:46.336Z,102079.13
2018-01-30T08:17:14.668Z,102071.67
2018-01-30T08:19:48.894Z,102069.48
2018-01-30T08:22:20.414Z,102066.88
2018-01-30T08:24:48.758Z,102067.31
2018-01-30T08:27:17.076Z,102073.88
2018-01-30T08:29:45.418Z,102075.20
2018-01-30T08:32:14.598Z,102077.37
2018-01-30T08:34:42.942Z,102076.06
2018-01-30T08:37:11.266Z,102077.37
2018-01-30T08:39:39.606Z,102081.33
2018-01-30T08:42:08.249Z,102081.33
2018-01-30T08:44:36.589Z,102085.73
2018-01-30T08:47:04.913Z,102081.77
2018-01-30T08:49:33.253Z,102087.02
2018-01-30T08:52:01.572Z,102082.20
2018-01-30T08:54:29.917Z,102079.56
2018-01-30T08:56:58.266Z,102080.89
2018-01-30T08:59:26.598Z,102081.77
2018-01-30T09:01:54.913Z,102076.06
2018-01-30T09:04:23.253Z,102066.41
2018-01-30T09:06:51.573Z,102073.45
2018-01-30T09:09:19.913Z,102069.48
2018-01-30T09:11:48.238Z,102071.25
2018-01-30T09:14:16.577Z,102072.12
2018-01-30T09:16:44.903Z,102072.10
2018-01-30T09:19:13.245Z,102071.24
2018-01-30T09:21:41.566Z,102079.56
2018-01-30T09:24:09.908Z,102081.33
2018-01-30T09:26:38.229Z,102089.66
2018-01-30T09:29:06.573Z,102088.36
2018-01-30T09:31:34.901Z,102094.94
2018-01-30T09:34:03.237Z,102086.59
2018-01-30T09:36:31.558Z,102086.14
2018-01-30T09:38:59.897Z,102098.42
2018-01-30T09:41:28.218Z,102092.73
2018-01-30T09:43:56.564Z,102094.45
2018-01-30T09:46:24.881Z,102082.61
2018-01-30T09:48:53.223Z,102094.02
2018-01-30T09:51:21.537Z,102092.69
2018-01-30T09:53:49.882Z,102083.89
2018-01-30T09:56:18.202Z,102092.27
2018-01-30T09:58:46.550Z,102083.02
2018-01-30T10:01:14.870Z,102083.92
2018-01-30T10:03:43.230Z,102090.92
2018-01-30T10:06:11.533Z,102087.00
2018-01-30T10:08:39.877Z,102085.69
2018-01-30T10:11:08.217Z,102086.11
2018-01-30T10:13:36.541Z,102090.95
2018-01-30T10:16:04.891Z,102094.91
2018-01-30T10:18:33.210Z,102105.84
2018-01-30T10:21:01.550Z,102109.37
2018-01-30T10:23:29.870Z,102108.95
2018-01-30T10:25:58.246Z,102112.03
2018-01-30T10:28:26.541Z,102113.30
2018-01-30T10:30:54.875Z,102115.51
2018-01-30T10:33:23.873Z,102108.03
2018-01-30T10:35:52.209Z,102104.09
2018-01-30T10:38:20.533Z,102104.11
2018-01-30T10:40:48.878Z,102105.83
2018-01-30T10:43:17.206Z,102091.77
2018-01-30T10:45:45.549Z,102089.09
2018-01-30T10:48:13.865Z,102093.49
2018-01-30T10:50:42.205Z,102095.23
2018-01-30T10:53:10.525Z,102093.05
2018-01-30T10:55:38.865Z,102098.30
2018-01-30T10:58:07.189Z,102095.67
2018-01-30T11:00:35.540Z,102095.67
2018-01-30T11:03:03.857Z,102099.15
2018-01-30T11:05:32.201Z,102093.45
2018-01-30T11:08:00.529Z,102101.73
2018-01-30T11:10:28.869Z,102098.23
2018-01-30T11:12:58.468Z,102104.80
2018-01-30T11:15:27.113Z,102096.89
2018-01-30T11:17:55.436Z,102100.82
2018-01-30T11:20:23.777Z,102095.61
2018-01-30T11:22:52.097Z,102089.86
2018-01-30T11:25:20.442Z,102087.22
2018-01-30T11:27:48.761Z,102087.22
2018-01-30T11:30:17.105Z,102088.48
2018-01-30T11:32:45.894Z,102088.89
2018-01-30T11:35:14.233Z,102080.52
2018-01-30T11:37:42.557Z,102085.88
2018-01-30T11:40:10.904Z,102071.73
2018-01-30T11:42:39.218Z,102071.73
2018-01-30T11:45:07.565Z,102077.03
2018-01-30T11:47:35.882Z,102077.05
2018-01-30T11:50:04.227Z,102073.03
2018-01-30T11:52:32.669Z,102063.84
2018-01-30T11:55:01.011Z,102067.34
2018-01-30T11:57:29.328Z,102061.64
2018-01-30T11:59:57.669Z,102057.22
2018-01-30T12:02:25.993Z,102061.16
2018-01-30T12:04:54.339Z,102054.60
2018-01-30T12:07:22.662Z,102051.61
2018-01-30T12:09:51.009Z,102047.59
2018-01-30T12:12:20.344Z,102044.97
2018-01-30T12:14:48.666Z,102054.61
2018-01-30T12:17:17.009Z,102038.36
2018-01-30T12:19:45.333Z,102033.02
2018-01-30T12:22:13.678Z,102036.19
2018-01-30T12:24:42.001Z,102037.42
2018-01-30T12:27:10.345Z,102020.23
2018-01-30T12:29:38.665Z,102023.23
2018-01-30T12:32:07.006Z,102023.20
2018-01-30T12:34:35.326Z,102018.36
2018-01-30T12:37:03.669Z,102014.89
2018-01-30T12:39:31.990Z,102027.11
2018-01-30T12:42:00.334Z,102030.66
2018-01-30T12:44:28.656Z,102024.61
2018-01-30T12:46:56.997Z,102012.66
2018-01-30T12:49:25.340Z,102013.96
2018-01-30T12:51:53.681Z,102009.91
2018-01-30T12:54:22.025Z,102006.00
2018-01-30T12:56:50.350Z,101998.47
2018-01-30T12:59:18.671Z,102001.93
2018-01-30T13:01:47.027Z,101989.67
2018-01-30T13:04:15.341Z,101984.75
2018-01-30T13:06:43.685Z,101984.28
2018-01-30T13:09:12.370Z,101983.40
2018-01-30T13:11:40.885Z,101976.77
2018-01-30T13:14:09.245Z,101972.52
2018-01-30T13:16:37.620Z,101969.14
2018-01-30T13:19:05.920Z,101968.61
2018-01-30T13:21:34.305Z,101958.50
2018-01-30T13:24:02.621Z,101958.00
2018-01-30T13:26:31.897Z,101964.13
2018-01-30T13:29:00.209Z,101957.85
2018-01-30T13:31:28.550Z,101957.83
2018-01-30T13:33:56.874Z,101953.36
2018-01-30T13:36:26.200Z,101942.92
2018-01-30T13:38:54.535Z,101943.30
2018-01-30T13:41:22.868Z,101933.12
2018-01-30T13:43:51.186Z,101941.48
2018-01-30T13:46:19.529Z,101944.49
2018-01-30T13:48:47.858Z,101944.90
2018-01-30T13:51:16.203Z,101934.74
2018-01-30T13:53:44.537Z,101930.16
2018-01-30T13:56:12.886Z,101921.98
2018-01-30T13:58:41.205Z,101926.85
2018-01-30T14:01:09.593Z,101925.91
2018-01-30T14:03:37.913Z,101920.66
2018-01-30T14:06:06.256Z,101927.70
2018-01-30T14:08:34.581Z,101923.33
2018-01-30T14:11:02.921Z,101913.65
2018-01-30T14:13:31.245Z,101917.58
2018-01-30T14:16:00.477Z,101914.56
2018-01-30T14:18:28.821Z,101908.70
2018-01-30T14:20:57.145Z,101913.72
2018-01-30T14:23:31.008Z,101909.93
2018-01-30T14:26:00.228Z,101907.39
2018-01-30T14:28:29.049Z,101905.63
2018-01-30T14:30:57.380Z,101910.88
2018-01-30T14:33:26.322Z,101915.86
2018-01-30T14:35:54.641Z,101910.37
2018-01-30T14:38:22.986Z,101911.78
2018-01-30T14:40:51.309Z,101921.96
2018-01-30T14:43:19.650Z,101924.66
2018-01-30T14:45:47.992Z,101920.81
2018-01-30T14:48:16.342Z,101922.98
2018-01-30T14:50:44.661Z,101918.62
2018-01-30T14:53:13.953Z,101916.48
2018-01-30T14:55:42.283Z,101916.53
2018-01-30T14:58:10.638Z,101916.55
2018-01-30T15:00:38.961Z,101916.66
2018-01-30T15:03:07.308Z,101920.53
2018-01-30T15:05:35.626Z,101908.56
2018-01-30T15:08:06.158Z,101895.98
2018-01-30T15:10:34.484Z,101898.59
2018-01-30T15:13:02.830Z,101896.80
2018-01-30T15:15:31.354Z,101886.36
2018-01-30T15:17:59.754Z,101883.72
2018-01-30T15:20:34.594Z,101873.20
2018-01-30T15:23:06.849Z,101874.13
2018-01-30T15:25:35.289Z,101871.49
2018-01-30T15:28:03.642Z,101865.46
2018-01-30T15:30:31.965Z,101870.25
2018-01-30T15:33:00.305Z,101864.09
2018-01-30T15:35:28.681Z,101861.06
2018-01-30T15:37:57.233Z,101863.23
2018-01-30T15:40:25.549Z,101860.95
2018-01-30T15:42:53.895Z,101864.71
2018-01-30T15:45:22.212Z,101868.03
2018-01-30T15:47:50.558Z,101862.23
2018-01-30T15:50:18.886Z,101859.28
2018-01-30T15:52:47.225Z,101848.42
2018-01-30T15:55:15.547Z,101847.25
2018-01-30T15:57:45.597Z,101837.46
2018-01-30T16:00:13.917Z,101835.03
2018-01-30T16:02:42.270Z,101836.27
2018-01-30T16:05:10.585Z,101828.71
2018-01-30T16:07:38.932Z,101829.31
2018-01-30T16:10:07.253Z,101828.86
2018-01-30T16:12:37.580Z,101829.75
2018-01-30T16:15:06.301Z,101823.27
2018-01-30T16:17:34.638Z,101829.31
2018-01-30T16:20:02.962Z,101819.61
2018-01-30T16:22:31.308Z,101819.14
2018-01-30T16:24:59.629Z,101813.84
2018-01-30T16:27:27.973Z,101822.72
2018-01-30T16:29:56.302Z,101820.52
2018-01-30T16:32:24.650Z,101822.27
2018-01-30T16:34:52.964Z,101814.55
2018-01-30T16:37:21.373Z,101808.02
2018-01-30T16:39:49.645Z,101799.45
2018-01-30T16:42:17.965Z,101787.20
2018-01-30T16:44:46.314Z,101787.96
2018-01-30T16:47:14.684Z,101781.95
2018-01-30T16:49:43.022Z,101778.06
2018-01-30T16:52:11.347Z,101766.13
2018-01-30T16:54:39.697Z,101761.33
2018-01-30T16:57:08.017Z,101757.06
2018-01-30T16:59:36.361Z,101759.28
2018-01-30T17:02:11.934Z,101753.66
2018-01-30T17:04:48.339Z,101753.69
2018-01-30T17:07:25.848Z,101748.35
2018-01-30T17:09:56.163Z,101745.24
2018-01-30T17:12:28.485Z,101745.61
2018-01-30T17:14:56.825Z,101742.03
2018-01-30T17:17:26.126Z,101737.81
2018-01-30T17:19:55.869Z,101738.48
2018-01-30T17:22:24.194Z,101730.16
2018-01-30T17:24:52.536Z,101726.16
2018-01-30T17:27:20.865Z,101726.65
2018-01-30T17:29:49.205Z,101723.92
2018-01-30T17:32:17.533Z,101725.20
2018-01-30T17:34:45.882Z,101728.23
2018-01-30T17:37:14.206Z,101729.16
2018-01-30T17:39:43.457Z,101725.05
2018-01-30T17:42:11.809Z,101729.36
2018-01-30T17:44:40.153Z,101728.92
2018-01-30T17:47:08.490Z,101727.67
2018-01-30T17:49:36.829Z,101731.14
2018-01-30T17:52:05.158Z,101726.28
2018-01-30T17:54:33.510Z,101714.94
2018-01-30T17:57:01.833Z,101715.37
2018-01-30T17:59:30.180Z,101704.02
2018-01-30T18:01:58.505Z,101697.27
2018-01-30T18:04:26.858Z,101703.83
2018-01-30T18:06:55.215Z,101700.73
2018-01-30T18:09:23.551Z,101703.42
2018-01-30T18:11:51.961Z,101702.61
2018-01-30T18:14:20.310Z,101704.45
2018-01-30T18:16:49.634Z,101704.02
2018-01-30T18:19:18.921Z,101698.67
2018-01-30T18:21:47.249Z,101704.83
2018-01-30T18:24:16.260Z,101704.37
2018-01-30T18:26:45.510Z,101702.72
2018-01-30T18:29:13.854Z,101695.77
2018-01-30T18:31:42.176Z,101700.52
2018-01-30T18:34:10.546Z,101703.61
2018-01-30T18:36:39.825Z,101702.30
2018-01-30T18:39:08.177Z,101701.89
2018-01-30T18:41:36.562Z,101704.09
2018-01-30T18:44:04.914Z,101702.34
2018-01-30T18:46:33.258Z,101700.98
2018-01-30T18:49:01.610Z,101699.23
2018-01-30T18:51:29.945Z,101700.08
2018-01-30T18:53:58.302Z,101691.30
2018-01-30T18:56:26.635Z,101690.41
2018-01-30T18:58:55.025Z,101684.59
2018-01-30T19:01:23.345Z,101686.73
2018-01-30T19:03:51.693Z,101674.02
2018-01-30T19:06:20.027Z,101681.05
2018-01-30T19:08:48.381Z,101678.38
2018-01-30T19:11:16.744Z,101670.06
2018-01-30T19:13:45.082Z,101670.94
2018-01-30T19:16:13.433Z,101675.31
2018-01-30T19:18:41.765Z,101672.27
2018-01-30T19:21:10.114Z,101663.50
2018-01-30T19:23:38.446Z,101659.55
2018-01-30T19:26:06.797Z,101652.09
2018-01-30T19:28:35.125Z,101642.45
2018-01-30T19:31:03.483Z,101635.48
2018-01-30T19:33:31.825Z,101632.09
2018-01-30T19:36:00.171Z,101627.83
2018-01-30T19:38:28.824Z,101619.58
2018-01-30T19:41:03.758Z,101615.19
2018-01-30T19:43:32.122Z,101614.34
2018-01-30T19:46:00.623Z,101610.36
2018-01-30T19:48:34.970Z,101600.37
2018-01-30T19:51:03.319Z,101604.36
2018-01-30T19:53:31.644Z,101598.67
2018-01-30T19:55:59.988Z,101602.17
2018-01-30T19:58:28.318Z,101592.99
2018-01-30T20:00:56.674Z,101586.88
2018-01-30T20:03:24.996Z,101579.49
2018-01-30T20:05:53.466Z,101571.19
2018-01-30T20:08:21.795Z,101568.13
2018-01-30T20:10:50.151Z,101571.63
2018-01-30T20:13:18.469Z,101575.98
2018-01-30T20:15:47.927Z,101567.25
2018-01-30T20:18:21.185Z,101574.19
2018-01-30T20:20:49.575Z,101574.59
2018-01-30T20:23:23.443Z,101573.70
2018-01-30T20:25:58.055Z,101566.63
2018-01-30T20:28:31.907Z,101566.98
2018-01-30T20:31:00.261Z,101560.37
2018-01-30T20:33:28.625Z,101562.53
2018-01-30T20:35:56.973Z,101568.66
2018-01-30T20:38:25.297Z,101561.63
2018-01-30T20:40:53.654Z,101566.42
2018-01-30T20:43:26.621Z,101563.34
2018-01-30T20:45:55.397Z,101568.61
2018-01-30T20:48:24.884Z,101573.45
2018-01-30T20:50:54.765Z,101565.98
2018-01-30T20:53:25.278Z,101565.97
2018-01-30T20:55:56.603Z,101563.31
2018-01-30T20:58:24.928Z,101556.31
2018-01-30T21:01:01.126Z,101551.93
2018-01-30T21:03:33.597Z,101545.77
2018-01-30T21:06:02.710Z,101542.70
2018-01-30T21:08:39.413Z,101535.73
2018-01-30T21:11:24.432Z,101534.86
2018-01-30T21:13:54.145Z,101531.78
2018-01-30T21:16:22.579Z,101531.80
2018-01-30T21:18:50.911Z,101531.85
2018-01-30T21:21:19.328Z,101524.38
2018-01-30T21:23:47.666Z,101523.09
2018-01-30T21:26:16.052Z,101515.66
2018-01-30T21:29:02.033Z,101506.05
2018-01-30T21:34:29.438Z,101480.23
2018-01-30T21:37:03.769Z,101481.16
2018-01-30T21:39:33.868Z,101475.45
2018-01-30T21:42:03.034Z,101472.80
2018-01-30T21:44:36.292Z,101476.73
2018-01-30T21:47:04.813Z,101462.23
2018-01-30T21:49:33.351Z,101456.95
2018-01-30T21:52:01.782Z,101454.37
2018-01-30T21:54:30.116Z,101449.61
2018-01-30T21:56:58.417Z,101446.10
2018-01-30T21:59:26.745Z,101439.12
2018-01-30T22:01:55.094Z,101424.63
2018-01-30T22:04:23.417Z,101425.53
2018-01-30T22:06:51.766Z,101420.72
2018-01-30T22:09:20.097Z,101419.38
2018-01-30T22:11:48.441Z,101409.84
2018-01-30T22:14:16.779Z,101401.52
2018-01-30T22:16:45.125Z,101398.05
2018-01-30T22:19:13.615Z,101390.25
2018-01-30T22:21:42.055Z,101384.59
2018-01-30T22:24:10.370Z,101368.90
2018-01-30T22:26:39.628Z,101362.83
2018-01-30T22:29:07.953Z,101360.65
2018-01-30T22:31:36.309Z,101351.98
2018-01-30T22:34:12.047Z,101351.53
2018-01-30T22:36:51.032Z,101353.25
2018-01-30T22:39:26.473Z,101343.64
2018-01-30T22:41:59.876Z,101341.92
2018-01-30T22:44:30.055Z,101338.00
2018-01-30T22:46:56.637Z,101335.32
